Florenceville, Iowa
Current Conditions -  °F | °C
As of 5:55 AM on Wednesday 28 Jan 2015 (Local Time) from KFKA Reporting Station
Haze Haze  
Wind Chill: 11°   Ceiling: 300
Heat Index: 23°   Visibility: 1.7mi
Dew Point: 22°   Wind: 14mph
Humidity: 96%   Direction: 160°SSE
Pressure: 30.07"   Gusts: NA
Location:  43.363°N, 92.1685°W
Report Text: KFKA 281155Z AUTO 16012KT 1 3/4SM BR OVC003 M05/M05 A3007 RMK AO2 T10501055 11032 21050
Loading
Personal Weather Stations






























Interactive Weather Map New forecast layout! Learn more

10-Day Weather Forecast

Advertisements
Track Severe Weather on mobile